Time;durP1;ratioP1;P1;durP2;ratioP2;P2;SDS_P1;SDS_P2;PMS_P1;PMS_P2;Temp;Humidity;BMP_temperature;BMP_pressure;BME280_temperature;BME280_humidity;BME280_pressure;Samples;Min_cycle;Max_cycle;Signal;HPM_P1;HPM_P2
2023/06/14 00:00:03;;;;;;;5.35;4.15;;;;;;;23.86;61.40;98158.63;2069540;28;20053;-56
2023/06/14 00:01:06;;;;;;;6.28;4.47;;;;;;;23.86;61.45;98164.03;2071577;28;20041;-48
2023/06/14 00:02:08;;;;;;;5.38;3.72;;;;;;;23.84;61.52;98157.22;2070744;28;20099;-50
2023/06/14 00:03:11;;;;;;;5.68;4.10;;;;;;;23.84;61.78;98157.22;2066797;28;20091;-53
2023/06/14 00:04:12;;;;;;;7.60;5.38;;;;;;;23.85;61.53;98159.72;2068901;28;20053;-49
2023/06/14 00:05:14;;;;;;;4.53;3.58;;;;;;;23.85;61.43;98150.78;2068604;28;20049;-47
2023/06/14 00:06:15;;;;;;;6.10;4.82;;;;;;;23.85;61.49;98159.72;2065956;28;20064;-50
2023/06/14 00:07:18;;;;;;;5.18;3.80;;;;;;;23.85;61.47;98153.47;2070431;28;20084;-49
2023/06/14 00:08:21;;;;;;;5.65;4.25;;;;;;;23.83;61.42;98153.72;2068592;28;20144;-54
2023/06/14 00:09:23;;;;;;;5.55;4.03;;;;;;;23.83;61.32;98156.41;2071857;28;20816;-47
2023/06/14 00:10:26;;;;;;;6.30;4.20;;;;;;;23.85;61.44;98151.59;2068677;28;20049;-52
2023/06/14 00:11:29;;;;;;;4.93;3.25;;;;;;;23.84;61.48;98149.13;2068820;28;20049;-53
2023/06/14 00:12:30;;;;;;;7.18;4.35;;;;;;;23.84;61.26;98147.22;2071355;28;20050;-52
2023/06/14 00:13:32;;;;;;;5.95;4.38;;;;;;;23.84;61.43;98147.22;2069986;28;20041;-48
2023/06/14 00:14:33;;;;;;;4.70;4.20;;;;;;;23.84;61.41;98152.63;2072096;28;20502;-53
2023/06/14 00:15:35;;;;;;;6.18;4.15;;;;;;;23.84;61.43;98140.97;2072022;28;20041;-53
2023/06/14 00:16:38;;;;;;;5.05;4.25;;;;;;;23.83;61.26;98148.28;2067844;28;20099;-52
2023/06/14 00:17:40;;;;;;;5.53;3.88;;;;;;;23.82;61.69;98143.97;2071063;28;20056;-50
2023/06/14 00:18:41;;;;;;;6.50;5.10;;;;;;;23.81;61.80;98147.72;2071546;28;20049;-48
2023/06/14 00:19:43;;;;;;;6.38;4.32;;;;;;;23.83;61.78;98142.88;2069808;28;20111;-54
2023/06/14 00:20:44;;;;;;;5.30;3.72;;;;;;;23.83;61.60;98139.34;2069785;28;20061;-53
2023/06/14 00:21:46;;;;;;;6.68;4.15;;;;;;;23.82;61.29;98146.66;2069121;28;20137;-50
2023/06/14 00:22:48;;;;;;;5.53;4.50;;;;;;;23.82;61.56;98143.97;2068862;28;20447;-50
2023/06/14 00:23:49;;;;;;;4.95;3.83;;;;;;;23.82;61.42;98143.97;2069164;28;20455;-53
2023/06/14 00:24:50;;;;;;;5.65;4.03;;;;;;;23.82;61.69;98143.13;2069817;28;20496;-50
2023/06/14 00:25:53;;;;;;;7.45;4.65;;;;;;;23.83;61.56;98142.88;2070941;28;20058;-47
2023/06/14 00:26:55;;;;;;;5.47;4.10;;;;;;;23.82;61.65;98146.66;2070078;28;21510;-51
2023/06/14 00:27:57;;;;;;;7.65;4.28;;;;;;;23.82;61.69;98140.41;2070656;28;20053;-51
2023/06/14 00:28:58;;;;;;;5.68;3.95;;;;;;;23.82;61.58;98152.09;2070479;28;20615;-48
2023/06/14 00:30:00;;;;;;;4.80;3.65;;;;;;;23.82;61.44;98145.81;2067883;28;20076;-53
2023/06/14 00:31:01;;;;;;;6.55;4.15;;;;;;;23.81;61.76;98142.31;2069719;28;20292;-50
2023/06/14 00:32:03;;;;;;;6.72;3.95;;;;;;;23.81;61.71;98142.31;2070731;28;20643;-47
2023/06/14 00:33:04;;;;;;;7.07;4.80;;;;;;;23.81;61.43;98139.59;2070719;28;20198;-47
2023/06/14 00:34:05;;;;;;;6.05;3.60;;;;;;;23.83;61.45;98131.22;2069812;28;20140;-52
2023/06/14 00:35:07;;;;;;;4.97;3.70;;;;;;;23.83;61.72;98136.66;2069981;28;20129;-54
2023/06/14 00:36:09;;;;;;;6.53;4.22;;;;;;;23.82;61.72;98127.72;2069512;28;20419;-51
2023/06/14 00:37:10;;;;;;;6.40;4.43;;;;;;;23.82;61.53;98129.56;2070600;28;20119;-56
2023/06/14 00:38:12;;;;;;;6.05;4.30;;;;;;;23.82;61.56;98127.72;2067092;28;20158;-48
2023/06/14 00:39:12;;;;;;;8.40;4.82;;;;;;;23.82;61.66;98127.72;2070476;28;20432;-48
2023/06/14 00:40:14;;;;;;;6.07;3.80;;;;;;;23.81;61.44;98120.63;2068608;28;20050;-52
2023/06/14 00:41:16;;;;;;;5.85;3.80;;;;;;;23.80;61.51;98124.44;2070383;28;20080;-53
2023/06/14 00:42:25;;;;;;;6.35;4.45;;;;;;;23.80;61.76;98129.84;2066614;28;20052;-52
2023/06/14 00:43:26;;;;;;;7.15;4.05;;;;;;;23.79;61.47;98120.09;2068012;28;20099;-50
2023/06/14 00:44:28;;;;;;;5.28;3.70;;;;;;;23.81;61.57;98122.53;2068792;28;21227;-47
2023/06/14 00:45:31;;;;;;;4.57;3.47;;;;;;;23.81;61.66;98125.25;2068671;28;20097;-48
2023/06/14 00:46:33;;;;;;;10.40;4.22;;;;;;;23.80;61.46;98120.91;2068205;28;20575;-50
2023/06/14 00:47:37;;;;;;;4.82;4.00;;;;;;;23.82;61.79;98118.75;2069378;28;20073;-53
2023/06/14 00:48:40;;;;;;;4.90;4.15;;;;;;;23.80;61.46;98124.44;2070283;28;20100;-52
2023/06/14 00:49:41;;;;;;;8.48;4.00;;;;;;;23.81;61.48;98120.63;2069680;28;20084;-54
2023/06/14 00:50:45;;;;;;;6.85;3.72;;;;;;;23.81;61.79;98126.06;2070333;28;20563;-49
2023/06/14 00:51:46;;;;;;;6.60;4.65;;;;;;;23.80;61.54;98121.72;2068917;28;20304;-53
2023/06/14 00:52:48;;;;;;;7.45;4.18;;;;;;;23.80;61.98;98124.44;2068191;28;20523;-50
2023/06/14 00:53:49;;;;;;;5.85;4.05;;;;;;;23.81;61.74;98125.25;2070265;28;20099;-47
2023/06/14 00:54:51;;;;;;;4.57;3.30;;;;;;;23.80;61.63;98126.31;2070373;28;20468;-51
2023/06/14 00:55:52;;;;;;;8.48;4.80;;;;;;;23.81;61.76;98128.75;2068644;28;20084;-52
2023/06/14 00:56:55;;;;;;;5.05;3.83;;;;;;;23.80;61.51;98118.19;2068699;28;20058;-49
2023/06/14 00:57:56;;;;;;;5.50;3.53;;;;;;;23.80;61.79;98129.84;2068481;28;20337;-54
2023/06/14 00:58:59;;;;;;;5.05;4.07;;;;;;;23.80;61.44;98121.72;2068236;28;21639;-48
2023/06/14 00:59:59;;;;;;;5.32;3.65;;;;;;;23.79;61.62;98121.94;2069036;28;20168;-50
2023/06/14 01:01:02;;;;;;;5.90;3.88;;;;;;;23.78;61.57;98114.91;2066565;28;20397;-54
2023/06/14 01:02:03;;;;;;;5.82;3.22;;;;;;;23.79;61.83;98117.38;2068319;28;20096;-53
2023/06/14 01:03:06;;;;;;;5.85;2.97;;;;;;;23.80;61.48;98118.19;2068604;28;20476;-54
2023/06/14 01:04:07;;;;;;;4.80;3.28;;;;;;;23.78;61.92;98118.44;2068840;28;20042;-50
2023/06/14 01:05:10;;;;;;;4.15;3.17;;;;;;;23.79;61.53;98105.72;2069599;28;20055;-53
2023/06/14 01:06:26;;;;;;;5.28;3.05;;;;;;;23.78;61.35;98115.72;2066073;28;20060;-52
2023/06/14 01:07:41;;;;;;;3.97;3.22;;;;;;;23.74;61.84;98109.19;2069074;28;20045;-50
2023/06/14 01:08:51;;;;;;;5.70;3.80;;;;;;;23.75;61.66;98108.09;2066253;28;20057;-53
2023/06/14 01:10:05;;;;;;;5.15;3.60;;;;;;;23.75;61.92;98110.00;2071235;28;20415;-47
2023/06/14 01:11:12;;;;;;;5.82;3.83;;;;;;;23.75;61.78;98108.09;2069640;28;20060;-50
2023/06/14 01:12:22;;;;;;;4.22;3.45;;;;;;;23.75;61.91;98104.59;2071353;28;20111;-54
2023/06/14 01:13:28;;;;;;;4.18;3.20;;;;;;;23.76;61.64;98109.72;2068295;28;20091;-50
2023/06/14 01:14:32;;;;;;;5.63;4.03;;;;;;;23.76;61.72;98103.50;2068196;28;20503;-52
2023/06/14 01:15:34;;;;;;;6.97;3.72;;;;;;;23.74;61.59;98106.47;2068840;28;20053;-51
2023/06/14 01:16:39;;;;;;;4.22;2.80;;;;;;;23.74;61.79;98098.34;2070418;28;20060;-55
2023/06/14 01:17:43;;;;;;;4.43;2.65;;;;;;;23.74;61.64;98095.66;2058966;28;20064;-51
2023/06/14 01:18:47;;;;;;;3.45;3.15;;;;;;;23.75;61.75;98096.47;2068859;28;20281;-52
2023/06/14 01:19:48;;;;;;;3.83;3.10;;;;;;;23.75;61.87;98091.03;2068943;28;20696;-48
2023/06/14 01:20:54;;;;;;;4.57;3.33;;;;;;;23.76;61.81;98092.66;2070324;28;20057;-55
2023/06/14 01:21:56;;;;;;;5.47;3.28;;;;;;;23.75;61.51;98089.16;2069588;28;20522;-52
2023/06/14 01:22:59;;;;;;;15.25;4.22;;;;;;;23.76;61.62;98090.78;2069703;28;20053;-53
2023/06/14 01:24:03;;;;;;;6.60;4.03;;;;;;;23.76;61.71;98092.66;2071434;28;20058;-50
2023/06/14 01:25:06;;;;;;;7.18;4.70;;;;;;;23.76;61.49;98088.06;2070682;28;20052;-53
2023/06/14 01:26:07;;;;;;;5.80;3.80;;;;;;;23.77;61.63;98094.34;2072180;28;20053;-47
2023/06/14 01:27:09;;;;;;;4.10;3.53;;;;;;;23.75;61.55;98096.47;2071611;28;20088;-51
2023/06/14 01:28:12;;;;;;;4.45;3.70;;;;;;;23.76;61.76;98092.66;2071956;28;20096;-50
2023/06/14 01:29:17;;;;;;;4.18;3.13;;;;;;;23.76;61.51;98104.31;2071508;28;20062;-47
2023/06/14 01:30:20;;;;;;;6.32;3.33;;;;;;;23.74;61.49;98101.06;2071335;28;20149;-54
2023/06/14 01:31:22;;;;;;;5.30;3.45;;;;;;;23.75;61.65;98097.28;2072118;28;20041;-49
2023/06/14 01:32:25;;;;;;;6.13;3.47;;;;;;;23.74;61.93;98095.66;2069838;28;20052;-48
2023/06/14 01:33:29;;;;;;;5.47;3.80;;;;;;;23.75;61.86;98101.88;2069849;28;20799;-52
2023/06/14 01:34:31;;;;;;;5.57;3.45;;;;;;;23.75;61.63;98099.16;2072002;28;20049;-51
2023/06/14 01:35:33;;;;;;;4.60;3.15;;;;;;;23.74;61.86;98087.53;2071187;28;20045;-49
2023/06/14 01:36:36;;;;;;;4.78;3.33;;;;;;;23.74;61.58;98086.72;2069393;28;20486;-48
2023/06/14 01:37:39;;;;;;;4.28;3.58;;;;;;;23.74;61.72;98095.66;2071514;28;20073;-50
2023/06/14 01:38:43;;;;;;;4.95;2.78;;;;;;;23.74;61.68;98101.06;2071505;28;20485;-50
2023/06/14 01:39:46;;;;;;;4.38;3.28;;;;;;;23.75;61.90;98094.56;2073351;28;20049;-54
2023/06/14 01:40:48;;;;;;;5.03;3.47;;;;;;;23.75;62.11;98097.28;2068550;28;20542;-54
2023/06/14 01:41:52;;;;;;;4.13;2.95;;;;;;;23.74;61.89;98090.22;2071608;28;20052;-52
2023/06/14 01:42:53;;;;;;;4.70;3.35;;;;;;;23.74;61.99;98089.41;2070810;28;20137;-52
2023/06/14 01:43:56;;;;;;;4.47;2.88;;;;;;;23.76;61.65;98092.66;2071116;28;20111;-50
2023/06/14 01:44:57;;;;;;;5.53;3.03;;;;;;;23.73;61.98;98088.56;2073442;28;20506;-48
2023/06/14 01:46:01;;;;;;;6.07;3.22;;;;;;;23.73;61.85;98085.06;2069564;28;20132;-48
2023/06/14 01:47:01;;;;;;;5.95;3.40;;;;;;;23.71;62.00;98082.59;2072272;28;20049;-51
2023/06/14 01:48:04;;;;;;;3.97;2.78;;;;;;;23.72;61.77;98094.25;2072707;28;20060;-50
2023/06/14 01:49:05;;;;;;;5.47;3.40;;;;;;;23.72;61.85;98083.44;2069674;28;20085;-56
2023/06/14 01:50:08;;;;;;;3.78;2.72;;;;;;;23.74;61.72;98098.34;2070008;28;20069;-47
2023/06/14 01:51:08;;;;;;;4.07;2.60;;;;;;;23.72;61.82;98092.34;2069643;28;20041;-49
2023/06/14 01:52:10;;;;;;;4.55;2.90;;;;;;;23.72;61.86;98086.94;2072463;28;20688;-48
2023/06/14 01:53:11;;;;;;;3.78;2.55;;;;;;;23.72;61.68;98084.25;2069782;28;20053;-55
2023/06/14 01:54:14;;;;;;;3.83;3.35;;;;;;;23.75;61.72;98086.44;2072663;28;20539;-47
2023/06/14 01:55:17;;;;;;;5.50;3.97;;;;;;;23.73;62.01;98082.34;2072742;28;20477;-54
2023/06/14 01:56:19;;;;;;;4.15;2.95;;;;;;;23.72;61.83;98078.81;2071726;28;20053;-47
2023/06/14 01:57:21;;;;;;;5.30;3.60;;;;;;;23.72;61.93;98080.72;2073264;28;20096;-49
2023/06/14 01:58:23;;;;;;;4.90;3.22;;;;;;;23.73;61.98;98083.16;2070005;28;20401;-57
2023/06/14 01:59:24;;;;;;;4.22;2.70;;;;;;;23.74;61.88;98092.13;2070933;28;20064;-51
2023/06/14 02:00:26;;;;;;;4.03;2.42;;;;;;;23.72;61.97;98092.34;2070483;28;21144;-47
2023/06/14 02:01:27;;;;;;;4.82;3.22;;;;;;;23.72;62.13;98095.06;2069032;28;20049;-53
2023/06/14 02:02:29;;;;;;;3.75;2.45;;;;;;;23.72;62.10;98086.94;2068444;28;20193;-52
2023/06/14 02:03:30;;;;;;;4.05;2.88;;;;;;;23.72;61.66;98078.81;2072108;28;20487;-55
2023/06/14 02:04:32;;;;;;;4.85;3.45;;;;;;;23.73;62.01;98076.94;2071341;28;20051;-58
2023/06/14 02:05:34;;;;;;;3.92;2.45;;;;;;;23.72;61.94;98078.81;2068362;28;20053;-51
2023/06/14 02:06:36;;;;;;;6.07;3.38;;;;;;;23.73;61.79;98074.22;2073097;28;20507;-54
2023/06/14 02:07:37;;;;;;;3.88;3.30;;;;;;;23.72;61.82;98076.13;2071186;28;20084;-53
2023/06/14 02:08:39;;;;;;;4.07;3.33;;;;;;;23.71;61.83;98077.19;2072129;28;20838;-52
2023/06/14 02:09:42;;;;;;;6.15;3.30;;;;;;;23.72;62.00;98081.53;2070745;28;20045;-52
2023/06/14 02:10:43;;;;;;;3.40;2.67;;;;;;;23.70;61.85;98072.00;2070052;28;20080;-50
2023/06/14 02:11:44;;;;;;;3.35;2.95;;;;;;;23.69;61.89;98073.88;2069535;28;21078;-54
2023/06/14 02:12:46;;;;;;;3.33;2.88;;;;;;;23.71;61.82;98074.50;2069764;28;20057;-52
2023/06/14 02:13:47;;;;;;;3.85;3.00;;;;;;;23.73;61.93;98079.63;2070272;28;20049;-53
2023/06/14 02:14:49;;;;;;;3.42;2.45;;;;;;;23.71;61.88;98079.06;2071869;28;20136;-50
2023/06/14 02:15:54;;;;;;;4.55;3.05;;;;;;;23.69;62.03;98073.88;2068080;28;20045;-53
2023/06/14 02:16:55;;;;;;;4.78;2.95;;;;;;;23.71;62.18;98076.34;2070630;28;20049;-50
2023/06/14 02:17:56;;;;;;;4.53;2.35;;;;;;;23.69;61.78;98071.16;2069083;28;20050;-52
2023/06/14 02:18:58;;;;;;;4.18;3.00;;;;;;;23.70;61.88;98067.38;2068973;28;20046;-49
2023/06/14 02:19:59;;;;;;;3.63;2.50;;;;;;;23.69;61.94;98067.66;2069845;28;20076;-53
2023/06/14 02:21:01;;;;;;;5.47;2.92;;;;;;;23.69;61.80;98063.06;2071396;28;20063;-51
2023/06/14 02:22:02;;;;;;;2.55;2.35;;;;;;;23.71;61.77;98065.53;2071600;28;20045;-50
2023/06/14 02:23:03;;;;;;;4.15;2.67;;;;;;;23.71;62.10;98070.94;2071369;28;20084;-53
2023/06/14 02:24:05;;;;;;;4.72;2.63;;;;;;;23.71;62.04;98058.25;2068767;28;20045;-53
2023/06/14 02:25:09;;;;;;;2.60;2.03;;;;;;;23.72;61.90;98067.19;2069702;28;20072;-53
2023/06/14 02:26:09;;;;;;;3.63;2.58;;;;;;;23.69;61.86;98063.06;2071396;28;20416;-47
2023/06/14 02:27:11;;;;;;;3.58;2.63;;;;;;;23.68;62.09;98066.84;2071769;28;20369;-53
2023/06/14 02:28:12;;;;;;;6.50;3.08;;;;;;;23.69;61.85;98073.88;2070139;28;20057;-50
2023/06/14 02:29:14;;;;;;;4.32;2.80;;;;;;;23.71;61.78;98070.94;2071061;28;20763;-50
2023/06/14 02:30:15;;;;;;;3.38;2.53;;;;;;;23.72;61.87;98061.75;2069949;28;20045;-50
2023/06/14 02:31:17;;;;;;;4.97;2.90;;;;;;;23.71;61.72;98070.94;2070987;28;20085;-48
2023/06/14 02:32:18;;;;;;;4.57;2.88;;;;;;;23.70;62.07;98069.28;2070976;28;20099;-48
2023/06/14 02:33:21;;;;;;;4.07;2.63;;;;;;;23.71;61.85;98069.06;2071529;28;20056;-50
2023/06/14 02:34:22;;;;;;;3.25;2.75;;;;;;;23.69;61.67;98063.06;2070887;28;20071;-49
2023/06/14 02:35:26;;;;;;;3.75;2.60;;;;;;;23.71;61.89;98070.94;2071166;28;20038;-50
2023/06/14 02:36:29;;;;;;;4.60;2.83;;;;;;;23.67;62.06;98067.88;2069200;28;21026;-48
2023/06/14 02:37:31;;;;;;;3.65;2.95;;;;;;;23.68;61.83;98061.44;2068720;28;20779;-51
2023/06/14 02:38:31;;;;;;;4.30;2.70;;;;;;;23.68;62.00;98061.44;2071745;28;20053;-48
2023/06/14 02:39:33;;;;;;;3.20;2.30;;;;;;;23.68;62.16;98069.53;2067183;28;20053;-48
2023/06/14 02:40:36;;;;;;;3.78;2.67;;;;;;;23.67;62.00;98065.19;2069181;28;20060;-51
2023/06/14 02:41:38;;;;;;;4.30;2.65;;;;;;;23.68;62.10;98064.13;2071760;28;20138;-50
2023/06/14 02:42:38;;;;;;;3.13;2.70;;;;;;;23.67;62.05;98059.75;2074020;28;20049;-49
2023/06/14 02:43:40;;;;;;;3.30;2.38;;;;;;;23.69;61.88;98059.53;2073420;28;20049;-48
2023/06/14 02:44:41;;;;;;;2.65;2.33;;;;;;;23.69;62.11;98056.81;2073216;28;20124;-48
2023/06/14 02:45:43;;;;;;;3.97;2.60;;;;;;;23.70;61.83;98059.25;2073313;28;20053;-48
2023/06/14 02:46:44;;;;;;;3.45;2.33;;;;;;;23.68;61.88;98061.44;2071990;28;20141;-49
2023/06/14 02:47:46;;;;;;;2.95;2.63;;;;;;;23.68;61.82;98058.72;2073009;28;20049;-49
2023/06/14 02:48:47;;;;;;;3.97;2.63;;;;;;;23.67;61.99;98051.66;2071887;28;20049;-49
2023/06/14 02:49:49;;;;;;;3.05;2.40;;;;;;;23.68;62.12;98064.13;2071578;28;20582;-49
2023/06/14 02:50:51;;;;;;;5.43;2.90;;;;;;;23.67;61.70;98059.75;2069605;28;20083;-49
2023/06/14 02:51:52;;;;;;;4.03;2.85;;;;;;;23.69;61.88;98056.81;2071056;28;21162;-47
2023/06/14 02:52:55;;;;;;;4.05;2.40;;;;;;;23.69;61.74;98054.94;2071401;28;20050;-48
2023/06/14 02:53:57;;;;;;;5.45;2.95;;;;;;;23.67;61.95;98057.06;2071811;28;20050;-51
2023/06/14 02:54:58;;;;;;;4.30;2.30;;;;;;;23.69;62.05;98063.06;2069988;28;20467;-49
2023/06/14 02:56:03;;;;;;;4.13;2.90;;;;;;;23.69;61.71;98057.63;2071601;28;20064;-49
2023/06/14 02:57:06;;;;;;;3.92;2.72;;;;;;;23.68;61.83;98066.00;2072378;28;20558;-49
2023/06/14 02:58:08;;;;;;;3.75;2.95;;;;;;;23.66;62.05;98057.31;2062063;28;20049;-49
2023/06/14 02:59:09;;;;;;;2.67;2.33;;;;;;;23.66;62.09;98052.72;2069509;28;20438;-49
2023/06/14 03:00:12;;;;;;;4.43;3.22;;;;;;;23.67;61.92;98053.53;2070126;28;20046;-48
2023/06/14 03:01:14;;;;;;;4.10;2.30;;;;;;;23.66;61.83;98052.72;2070319;28;20706;-47
2023/06/14 03:02:16;;;;;;;4.82;3.40;;;;;;;23.66;61.80;98057.31;2069363;28;20588;-48
2023/06/14 03:03:17;;;;;;;2.72;2.33;;;;;;;23.66;61.73;98051.91;2072020;28;20129;-48
2023/06/14 03:04:20;;;;;;;3.63;2.55;;;;;;;23.64;62.22;98050.25;2071426;28;20480;-48
2023/06/14 03:05:21;;;;;;;2.70;2.15;;;;;;;23.66;61.85;98057.31;2072820;28;20080;-49
2023/06/14 03:06:24;;;;;;;4.10;2.42;;;;;;;23.66;61.76;98052.72;2068899;28;20111;-47
2023/06/14 03:07:27;;;;;;;2.42;2.05;;;;;;;23.65;61.78;98053.78;2070253;28;20053;-48
2023/06/14 03:08:31;;;;;;;3.97;2.35;;;;;;;23.66;61.81;98050.03;2068875;28;20142;-48
2023/06/14 03:09:32;;;;;;;4.32;2.55;;;;;;;23.65;62.18;98051.06;2071135;28;20042;-51
2023/06/14 03:10:34;;;;;;;2.53;2.20;;;;;;;23.66;62.09;98052.72;2073843;28;20140;-48
2023/06/14 03:11:36;;;;;;;3.33;2.63;;;;;;;23.67;61.96;98048.94;2071647;28;20060;-49
2023/06/14 03:12:38;;;;;;;3.13;2.75;;;;;;;23.66;61.86;98050.03;2069153;28;20232;-48
2023/06/14 03:13:40;;;;;;;2.80;2.08;;;;;;;23.64;62.32;98052.16;2070201;28;20077;-48
2023/06/14 03:14:45;;;;;;;4.22;2.40;;;;;;;23.64;61.99;98052.97;2067391;28;20061;-49
2023/06/14 03:15:46;;;;;;;4.00;1.98;;;;;;;23.64;61.99;98054.84;2069554;28;20102;-48
2023/06/14 03:16:50;;;;;;;2.90;2.15;;;;;;;23.64;61.99;98054.84;2071429;28;20065;-47
2023/06/14 03:17:53;;;;;;;3.45;2.33;;;;;;;23.63;61.87;98053.22;2071051;28;20057;-48
2023/06/14 03:18:54;;;;;;;3.63;3.05;;;;;;;23.62;62.03;98060.53;2068642;28;20438;-48
2023/06/14 03:19:56;;;;;;;3.40;2.45;;;;;;;23.63;62.01;98059.47;2071693;28;20373;-49
2023/06/14 03:20:57;;;;;;;2.95;2.33;;;;;;;23.64;62.06;98061.09;2071829;28;20049;-49
2023/06/14 03:21:59;;;;;;;2.40;2.20;;;;;;;23.64;62.06;98057.56;2072306;28;20581;-48
2023/06/14 03:23:02;;;;;;;2.92;2.05;;;;;;;23.64;62.32;98061.09;2070484;28;20057;-47
2023/06/14 03:24:04;;;;;;;2.85;2.45;;;;;;;23.64;61.89;98063.78;2070783;28;20119;-49
2023/06/14 03:25:06;;;;;;;2.80;2.22;;;;;;;23.63;62.08;98059.47;2069525;28;20179;-48
2023/06/14 03:26:07;;;;;;;3.03;2.45;;;;;;;23.64;62.22;98065.69;2067244;28;20054;-49
2023/06/14 03:27:10;;;;;;;3.22;2.22;;;;;;;23.66;61.58;98058.13;2073024;28;20053;-52
2023/06/14 03:28:12;;;;;;;3.78;2.67;;;;;;;23.64;61.93;98066.50;2067074;28;20095;-49
2023/06/14 03:29:12;;;;;;;2.72;2.33;;;;;;;23.63;62.16;98066.75;2071477;28;20049;-49
2023/06/14 03:30:15;;;;;;;4.07;2.15;;;;;;;23.63;61.88;98061.34;2069656;28;20092;-48
2023/06/14 03:31:16;;;;;;;3.97;2.50;;;;;;;23.63;62.21;98070.28;2070471;28;20061;-50
2023/06/14 03:32:17;;;;;;;2.65;2.38;;;;;;;23.63;62.06;98069.47;2069866;28;20553;-49
2023/06/14 03:33:19;;;;;;;5.72;2.53;;;;;;;23.65;61.92;98061.91;2069337;28;20153;-48
2023/06/14 03:34:20;;;;;;;4.55;2.40;;;;;;;23.66;61.99;98065.44;2071899;28;20496;-48
2023/06/14 03:35:21;;;;;;;2.63;2.13;;;;;;;23.63;62.23;98064.06;2073082;28;20859;-51
2023/06/14 03:36:23;;;;;;;2.80;2.22;;;;;;;23.63;62.10;98064.88;2072878;28;20064;-48
2023/06/14 03:37:24;;;;;;;2.92;2.47;;;;;;;23.63;61.80;98061.34;2069001;28;20621;-49
2023/06/14 03:38:26;;;;;;;2.97;2.50;;;;;;;23.64;61.69;98060.28;2069976;28;20061;-48
2023/06/14 03:39:27;;;;;;;2.85;2.13;;;;;;;23.62;61.84;98057.81;2070461;28;20629;-49
2023/06/14 03:40:29;;;;;;;5.45;2.67;;;;;;;23.62;62.18;98062.41;2072243;28;20048;-48
2023/06/14 03:41:30;;;;;;;4.07;2.20;;;;;;;23.63;61.72;98064.06;2069836;28;20055;-49
2023/06/14 03:42:33;;;;;;;2.95;2.28;;;;;;;23.62;61.75;98060.53;2070563;28;20084;-48
2023/06/14 03:43:34;;;;;;;2.60;1.58;;;;;;;23.62;61.99;98062.41;2072814;28;20050;-47
2023/06/14 03:44:36;;;;;;;2.65;2.28;;;;;;;23.62;61.80;98065.94;2070325;28;20567;-52
2023/06/14 03:45:37;;;;;;;2.40;2.20;;;;;;;23.63;61.78;98069.47;2072002;28;20054;-50
2023/06/14 03:46:39;;;;;;;3.88;2.40;;;;;;;23.62;61.87;98075.94;2073768;28;20905;-51
2023/06/14 03:47:39;;;;;;;2.47;2.22;;;;;;;23.63;62.12;98077.59;2069907;28;20045;-51
2023/06/14 03:48:42;;;;;;;3.40;2.05;;;;;;;23.61;61.67;98080.53;2071094;28;20053;-50
2023/06/14 03:49:43;;;;;;;2.90;2.00;;;;;;;23.62;61.91;98078.66;2069568;28;20049;-55
2023/06/14 03:50:44;;;;;;;3.58;2.28;;;;;;;23.61;61.99;98080.53;2072078;28;20135;-52
2023/06/14 03:51:51;;;;;;;3.22;2.55;;;;;;;23.62;61.60;98078.66;2070242;28;20050;-51
2023/06/14 03:52:53;;;;;;;4.22;2.72;;;;;;;23.60;61.82;98084.31;2069978;28;20077;-54
2023/06/14 03:53:54;;;;;;;2.88;2.42;;;;;;;23.61;62.11;98080.53;2069545;28;20057;-53
2023/06/14 03:54:56;;;;;;;3.00;2.28;;;;;;;23.61;61.81;98087.84;2070622;28;21208;-52
2023/06/14 03:55:57;;;;;;;2.95;2.25;;;;;;;23.62;61.87;98084.91;2071491;28;20132;-48
2023/06/14 03:56:59;;;;;;;3.13;2.40;;;;;;;23.60;62.11;98080.81;2070531;28;20050;-52
2023/06/14 03:58:02;;;;;;;2.95;2.03;;;;;;;23.61;62.16;98087.84;2070352;28;20077;-50
2023/06/14 03:59:03;;;;;;;2.90;2.05;;;;;;;23.60;61.86;98080.81;2070446;28;20061;-48
2023/06/14 04:00:05;;;;;;;4.32;2.30;;;;;;;23.60;61.90;98080.81;2070553;28;21131;-53
2023/06/14 04:01:07;;;;;;;2.67;1.75;;;;;;;23.61;61.94;98083.25;2070231;28;20595;-49
2023/06/14 04:02:09;;;;;;;2.60;1.90;;;;;;;23.61;61.81;98088.66;2070383;28;20057;-51
2023/06/14 04:03:13;;;;;;;3.30;1.80;;;;;;;23.61;61.71;98087.84;2070728;28;20786;-55
2023/06/14 04:04:16;;;;;;;3.60;2.50;;;;;;;23.60;61.94;98086.22;2067967;28;20141;-53
2023/06/14 04:05:19;;;;;;;3.17;2.33;;;;;;;23.60;62.01;98086.22;2069191;28;20125;-51
2023/06/14 04:06:19;;;;;;;2.75;2.13;;;;;;;23.59;62.32;98082.66;2069102;28;20173;-51
2023/06/14 04:07:22;;;;;;;2.83;2.15;;;;;;;23.61;61.98;98093.25;2072547;28;20049;-51
2023/06/14 04:08:24;;;;;;;2.20;1.92;;;;;;;23.59;61.87;98089.97;2070094;28;20052;-52
2023/06/14 04:09:25;;;;;;;2.50;1.92;;;;;;;23.58;62.03;98086.44;2070133;28;20058;-53
2023/06/14 04:10:27;;;;;;;2.55;1.95;;;;;;;23.60;61.93;98092.44;2070482;28;20484;-52
2023/06/14 04:11:28;;;;;;;3.25;1.95;;;;;;;23.60;61.93;98094.34;2071667;28;20120;-51
2023/06/14 04:12:30;;;;;;;2.30;2.10;;;;;;;23.58;61.94;98094.56;2068349;28;20049;-52
2023/06/14 04:13:34;;;;;;;2.70;1.67;;;;;;;23.58;62.36;98100.00;2069284;28;20058;-54
2023/06/14 04:14:36;;;;;;;4.15;3.00;;;;;;;23.57;62.06;98103.78;2070610;28;20170;-54
2023/06/14 04:15:41;;;;;;;3.10;2.13;;;;;;;23.58;61.99;98104.59;2070406;28;20048;-51
2023/06/14 04:16:43;;;;;;;3.58;1.92;;;;;;;23.58;62.09;98104.59;2069721;28;20054;-54
2023/06/14 04:17:44;;;;;;;2.70;2.30;;;;;;;23.58;62.07;98105.41;2070418;28;20621;-48
2023/06/14 04:18:46;;;;;;;2.63;2.17;;;;;;;23.59;61.92;98114.34;2069965;28;20165;-53
2023/06/14 04:19:47;;;;;;;3.30;2.08;;;;;;;23.59;61.89;98119.75;2067518;28;20049;-51
2023/06/14 04:20:49;;;;;;;3.20;1.98;;;;;;;23.59;61.85;98112.44;2069054;28;20073;-55
2023/06/14 04:21:50;;;;;;;3.33;2.30;;;;;;;23.59;61.84;98119.75;2070583;28;20056;-51
2023/06/14 04:22:52;;;;;;;2.33;2.10;;;;;;;23.57;61.75;98114.59;2071365;28;21813;-52
2023/06/14 04:23:54;;;;;;;2.70;2.00;;;;;;;23.56;61.90;98117.53;2072842;28;20128;-50
2023/06/14 04:24:57;;;;;;;1.95;1.67;;;;;;;23.58;62.08;98118.94;2072069;28;20049;-51
2023/06/14 04:26:02;;;;;;;2.92;2.22;;;;;;;23.57;62.12;98119.19;2071020;28;20549;-50
2023/06/14 04:27:04;;;;;;;2.70;1.90;;;;;;;23.56;61.83;98123.78;2071667;28;20061;-52
2023/06/14 04:28:05;;;;;;;2.50;1.85;;;;;;;23.57;62.08;98122.72;2070895;28;20049;-51
2023/06/14 04:29:08;;;;;;;1.92;1.52;;;;;;;23.57;62.22;98121.91;2070539;28;20045;-49
2023/06/14 04:30:10;;;;;;;2.83;1.92;;;;;;;23.57;62.30;98124.63;2070571;28;20088;-50
2023/06/14 04:31:12;;;;;;;1.75;1.63;;;;;;;23.57;62.36;98121.91;2072185;28;21016;-53
2023/06/14 04:32:13;;;;;;;2.97;1.98;;;;;;;23.56;62.21;98122.97;2068423;28;20049;-48
2023/06/14 04:33:15;;;;;;;2.60;1.80;;;;;;;23.54;62.09;98127.78;2071049;28;20606;-51
2023/06/14 04:34:16;;;;;;;3.22;2.00;;;;;;;23.56;62.17;98121.06;2069820;28;20436;-47
2023/06/14 04:35:17;;;;;;;2.40;2.10;;;;;;;23.57;62.04;98125.44;2069818;28;20059;-52
2023/06/14 04:36:20;;;;;;;3.72;1.77;;;;;;;23.57;61.99;98124.63;2067658;28;20613;-48
2023/06/14 04:37:22;;;;;;;2.85;2.50;;;;;;;23.55;62.35;98127.56;2068693;28;20141;-48
2023/06/14 04:38:25;;;;;;;2.20;2.00;;;;;;;23.55;62.16;98118.63;2070517;28;20158;-52
2023/06/14 04:39:27;;;;;;;3.38;1.73;;;;;;;23.56;62.19;98117.53;2070889;28;20050;-54
2023/06/14 04:40:28;;;;;;;4.22;1.98;;;;;;;23.55;62.20;98115.91;2070410;28;20229;-49
2023/06/14 04:41:30;;;;;;;2.05;1.80;;;;;;;23.55;62.43;98118.63;2074627;28;20566;-52
2023/06/14 04:42:32;;;;;;;2.70;2.08;;;;;;;23.55;62.22;98115.91;2070357;28;21229;-51
2023/06/14 04:43:37;;;;;;;2.85;1.95;;;;;;;23.57;62.04;98113.78;2070443;28;20051;-51
2023/06/14 04:44:41;;;;;;;2.13;1.67;;;;;;;23.57;62.16;98119.19;2072475;28;20258;-48
2023/06/14 04:45:46;;;;;;;2.17;1.98;;;;;;;23.56;62.35;98120.25;2070288;28;20580;-52
2023/06/14 04:46:47;;;;;;;2.80;2.03;;;;;;;23.54;62.09;98116.97;2066861;28;20053;-53
2023/06/14 04:47:50;;;;;;;3.42;2.00;;;;;;;23.54;61.94;98108.84;2065406;28;20464;-51
2023/06/14 04:48:51;;;;;;;2.75;2.28;;;;;;;23.55;62.38;98111.31;2060398;28;20084;-50
2023/06/14 04:49:53;;;;;;;2.47;1.80;;;;;;;23.56;62.18;98112.13;2071328;28;20057;-54
2023/06/14 04:50:54;;;;;;;1.92;1.42;;;;;;;23.54;62.03;98114.25;2062050;28;20168;-55
2023/06/14 04:51:59;;;;;;;2.55;2.35;;;;;;;23.55;62.20;98111.31;2066926;28;20079;-52
2023/06/14 04:52:59;;;;;;;1.80;1.60;;;;;;;23.56;62.02;98106.72;2070937;28;20280;-50